Hanjin Sanfrancisco — 3FXR — position and weather

sailwx.info

Track history (hours):
 
Tides and Currents Weather Stations Pressure Air Temp Water Temp Dewpoint Dewpoint Depression Visibility Wind Speed Wind Dir Waves Ship Positions

Hanjin Sanfrancisco

Last reported at 2014-Feb-15 06:32 UTC. Time now 2014-Oct-25 19:06 UTC.
Position N 01°12' E 103°33'.
Warning: this ship's position is months out of date.

Length 289 m; draft 11.1 m.

Type: Cargo ship. MMSI: 351989000.

Date/timePositionNaut miles runAvg speedWind from/ knotsBaromVisibWave heightAir tempDewpointWater temp
2014-Feb-15 06:32N 01°12' E 103°33'1111.5
2014-Feb-15 05:33N 01°15' E 103°43'3 3.2
2014-Feb-15 04:29N 01°17' E 103°47'0 0.0
2014-Feb-15 03:26N 01°17' E 103°47'0 0.0
2014-Feb-15 02:32N 01°17' E 103°47'0 0.0
2014-Feb-15 01:29N 01°17' E 103°47'0 0.0
2014-Feb-15 00:32N 01°17' E 103°47'0 0.0
2014-Feb-14 23:29N 01°17' E 103°47'0 0.0
2014-Feb-14 22:29N 01°17' E 103°47'0 0.0
2014-Feb-14 21:29N 01°17' E 103°47'0 0.0
2014-Feb-14 20:32N 01°17' E 103°47'0 0.4
2014-Feb-14 19:33N 01°16' E 103°47'5 4.5
2014-Feb-14 18:34N 01°12' E 103°49'7 7.5
2014-Feb-14 17:34N 01°14' E 103°56'  
2014-Feb-09 10:33N 22°33' E 120°20'1 0.5
2014-Feb-09 09:33N 22°33' E 120°20'0 0.0
2014-Feb-09 08:17N 22°33' E 120°20'0 0.0
2014-Feb-09 07:29N 22°33' E 120°20'0 0.0
2014-Feb-09 06:23N 22°33' E 120°20'0 0.0
2014-Feb-09 05:29N 22°33' E 120°20'0 0.0
2014-Feb-09 04:11N 22°33' E 120°20'2 3.5
2014-Feb-09 03:33N 22°33' E 120°17'9 8.5
2014-Feb-09 02:33N 22°37' E 120°09'1110.8
2014-Feb-09 01:33N 22°46' E 120°03'1111.0
2014-Feb-09 00:33N 22°55' E 119°56'40711.5
2014-Feb-07 13:05N 29°17' E 122°33'1912.4
2014-Feb-07 11:32N 29°36' E 122°30'1111.7
2014-Feb-07 10:34N 29°44' E 122°21'1212.1
2014-Feb-07 09:34N 29°53' E 122°11'1313.0
2014-Feb-07 08:33N 29°58' E 121°57'2 1.9
2014-Feb-07 07:29N 29°56' E 121°56'0 0.0
2014-Feb-07 06:17N 29°56' E 121°56'0 0.0
2014-Feb-07 05:23N 29°56' E 121°56'0 0.0
2014-Feb-07 04:23N 29°56' E 121°56'0 0.0
2014-Feb-07 03:29N 29°56' E 121°56'0 0.1
2014-Feb-07 02:33N 29°56' E 121°56'5 4.0
2014-Feb-07 01:23N 29°56' E 122°01'1011.8
2014-Feb-07 00:33N 29°52' E 122°11'10 9.6
2014-Feb-06 23:33N 29°45' E 122°19'7 7.3
2014-Feb-06 22:33N 29°44' E 122°27'10 9.8
2014-Feb-06 21:33N 29°49' E 122°37'1110.4
2014-Feb-06 20:32N 29°56' E 122°46'1210.1
2014-Feb-06 19:23N 30°07' E 122°48'8 9.7
2014-Feb-06 18:33N 30°15' E 122°51'50 9.3
2014-Feb-06 13:12N 31°04' E 122°41'2210.8
2014-Feb-06 11:09N 31°08' E 122°16'813.0
2014-Feb-06 10:34N 31°12' E 122°08'1412.9
2014-Feb-06 09:29N 31°16' E 121°53'1112.1
2014-Feb-06 08:33N 31°20' E 121°40'0 0.5
2014-Feb-06 07:33N 31°20' E 121°40'0 0.0
2014-Feb-06 06:33N 31°20' E 121°40'0 0.0
2014-Feb-06 05:33N 31°20' E 121°40'0 0.0
2014-Feb-06 04:27N 31°20' E 121°40'0 0.0
2014-Feb-06 03:27N 31°20' E 121°40'0 0.0
2014-Feb-06 02:33N 31°20' E 121°40'0 0.0
2014-Feb-06 01:33N 31°20' E 121°40'0 0.0
2014-Feb-06 00:27N 31°20' E 121°40'0 0.0
2014-Feb-05 23:33N 31°20' E 121°40'0 0.0
2014-Feb-05 22:33N 31°20' E 121°40'0 0.0
2014-Feb-05 21:33N 31°20' E 121°40'0 0.0
2014-Feb-05 20:33N 31°20' E 121°40'1 0.7
2014-Feb-05 19:33N 31°21' E 121°39'8 7.6
2014-Feb-05 18:32N 31°18' E 121°48'2210.6
2014-Feb-05 16:26N 31°10' E 122°12'13 2.1
2014-Feb-05 10:27N 31°06' E 122°26'  
Track history (hours):
 
Tides and Currents Weather Stations Pressure Air Temp Water Temp Dewpoint Dewpoint Depression Visibility Wind Speed Wind Dir Waves Ship Positions

Hanjin Sanfrancisco

Last reported at 2014-Feb-15 06:32 UTC. Time now 2014-Oct-25 19:06 UTC.
Position N 01°12' E 103°33'.
Warning: this ship's position is months out of date.

Length 289 m; draft 11.1 m.

Type: Cargo ship. MMSI: 351989000.

Date/timePositionNaut miles runAvg speedWind from/ knotsBaromVisibWave heightAir tempDewpointWater temp
2014-Feb-15 06:32N 01°12' E 103°33'1111.5
2014-Feb-15 05:33N 01°15' E 103°43'3 3.2
2014-Feb-15 04:29N 01°17' E 103°47'0 0.0
2014-Feb-15 03:26N 01°17' E 103°47'0 0.0
2014-Feb-15 02:32N 01°17' E 103°47'0 0.0
2014-Feb-15 01:29N 01°17' E 103°47'0 0.0
2014-Feb-15 00:32N 01°17' E 103°47'0 0.0
2014-Feb-14 23:29N 01°17' E 103°47'0 0.0
2014-Feb-14 22:29N 01°17' E 103°47'0 0.0
2014-Feb-14 21:29N 01°17' E 103°47'0 0.0
2014-Feb-14 20:32N 01°17' E 103°47'0 0.4
2014-Feb-14 19:33N 01°16' E 103°47'5 4.5
2014-Feb-14 18:34N 01°12' E 103°49'7 7.5
2014-Feb-14 17:34N 01°14' E 103°56'  
2014-Feb-09 10:33N 22°33' E 120°20'1 0.5
2014-Feb-09 09:33N 22°33' E 120°20'0 0.0
2014-Feb-09 08:17N 22°33' E 120°20'0 0.0
2014-Feb-09 07:29N 22°33' E 120°20'0 0.0
2014-Feb-09 06:23N 22°33' E 120°20'0 0.0
2014-Feb-09 05:29N 22°33' E 120°20'0 0.0
2014-Feb-09 04:11N 22°33' E 120°20'2 3.5
2014-Feb-09 03:33N 22°33' E 120°17'9 8.5
2014-Feb-09 02:33N 22°37' E 120°09'1110.8
2014-Feb-09 01:33N 22°46' E 120°03'1111.0
2014-Feb-09 00:33N 22°55' E 119°56'40711.5
2014-Feb-07 13:05N 29°17' E 122°33'1912.4
2014-Feb-07 11:32N 29°36' E 122°30'1111.7
2014-Feb-07 10:34N 29°44' E 122°21'1212.1
2014-Feb-07 09:34N 29°53' E 122°11'1313.0
2014-Feb-07 08:33N 29°58' E 121°57'2 1.9
2014-Feb-07 07:29N 29°56' E 121°56'0 0.0
2014-Feb-07 06:17N 29°56' E 121°56'0 0.0
2014-Feb-07 05:23N 29°56' E 121°56'0 0.0
2014-Feb-07 04:23N 29°56' E 121°56'0 0.0
2014-Feb-07 03:29N 29°56' E 121°56'0 0.1
2014-Feb-07 02:33N 29°56' E 121°56'5 4.0
2014-Feb-07 01:23N 29°56' E 122°01'1011.8
2014-Feb-07 00:33N 29°52' E 122°11'10 9.6
2014-Feb-06 23:33N 29°45' E 122°19'7 7.3
2014-Feb-06 22:33N 29°44' E 122°27'10 9.8
2014-Feb-06 21:33N 29°49' E 122°37'1110.4
2014-Feb-06 20:32N 29°56' E 122°46'1210.1
2014-Feb-06 19:23N 30°07' E 122°48'8 9.7
2014-Feb-06 18:33N 30°15' E 122°51'50 9.3
2014-Feb-06 13:12N 31°04' E 122°41'2210.8
2014-Feb-06 11:09N 31°08' E 122°16'813.0
2014-Feb-06 10:34N 31°12' E 122°08'1412.9
2014-Feb-06 09:29N 31°16' E 121°53'1112.1
2014-Feb-06 08:33N 31°20' E 121°40'0 0.5
2014-Feb-06 07:33N 31°20' E 121°40'0 0.0
2014-Feb-06 06:33N 31°20' E 121°40'0 0.0
2014-Feb-06 05:33N 31°20' E 121°40'0 0.0
2014-Feb-06 04:27N 31°20' E 121°40'0 0.0
2014-Feb-06 03:27N 31°20' E 121°40'0 0.0
2014-Feb-06 02:33N 31°20' E 121°40'0 0.0
2014-Feb-06 01:33N 31°20' E 121°40'0 0.0
2014-Feb-06 00:27N 31°20' E 121°40'0 0.0
2014-Feb-05 23:33N 31°20' E 121°40'0 0.0
2014-Feb-05 22:33N 31°20' E 121°40'0 0.0
2014-Feb-05 21:33N 31°20' E 121°40'0 0.0
2014-Feb-05 20:33N 31°20' E 121°40'1 0.7
2014-Feb-05 19:33N 31°21' E 121°39'8 7.6
2014-Feb-05 18:32N 31°18' E 121°48'2210.6
2014-Feb-05 16:26N 31°10' E 122°12'13 2.1
2014-Feb-05 10:27N 31°06' E 122°26'  

Dump ship's entire track history